Main page
METAR-TAF:

METAR-TAF

Airports :

Curaçao, Netherlands Antilles

Curaçao International Airport

latitude: 12-12N, longitude: 068-58W, elevation: 9 m

Current weather observation

The report was made 1 hour and 4 minutes ago, at 13:00 UTC
Wind 18 kt from the East/Southeast
Temperature 30°C
Humidity 66%
Pressure 1012 hPa
Visibility 10 km or more
Few clouds at a height of 1600 ft, Towering cumulus.
showers in vicinity

METAR: TNCC 211300Z 11018KT 9999 VCSH FEW016TCU 30/23 Q1012 NOSIG

Time: 10:04 (14:04 UTC)

Forecast

The report was made 4 hours and 4 minutes ago, at 10:00 UTC
Forecast valid from 21 at 12 UTC to 22 at 12 UTC
Wind 15 kt from the East with gusts up to 26 kt
Visibility 10 km or more
Scattered clouds at a height of 1800 ft
Probability 30% :
Temporary
from 21 at 12 UTC to 21 at 16 UTC
Broken clouds at a height of 1500 ft

TAF: TNCC 211000Z 2112/2212 10015G26KT 9999 SCT018 PROB30 TEMPO 2112/2116 BKN015

Weather observations and forecasts of more than 4000 airports (METAR and TAF reports).

The available stations are represented by yellow and red dots on the map.

Hover mouse over dot to see the name of the station.

Then click to see weather observations and forecasts.

To change the map : click on the green buttons with a black cross to zoom in, on the green button with a dash to zoom out, or on the green arrows for adjacent maps.


METAR-TAF: